createdAt,value
2022-10-17T00:00:23.964Z,1014.60
2022-10-17T00:01:23.977Z,1014.63
2022-10-17T00:02:23.924Z,1014.65
2022-10-17T00:03:23.910Z,1014.55
2022-10-17T00:04:23.920Z,1014.63
2022-10-17T00:05:23.888Z,1014.59
2022-10-17T00:06:23.870Z,1014.50
2022-10-17T00:07:23.853Z,1014.55
2022-10-17T00:08:23.846Z,1014.53
2022-10-17T00:09:23.822Z,1014.50
2022-10-17T00:10:23.816Z,1014.53
2022-10-17T00:11:23.819Z,1014.56
2022-10-17T00:12:23.792Z,1014.50
2022-10-17T00:13:23.819Z,1014.53
2022-10-17T00:14:23.772Z,1014.52
2022-10-17T00:15:23.752Z,1014.47
2022-10-17T00:16:23.761Z,1014.53
2022-10-17T00:17:23.718Z,1014.49
2022-10-17T00:18:23.711Z,1014.53
2022-10-17T00:19:23.703Z,1014.53
2022-10-17T00:20:23.691Z,1014.50
2022-10-17T00:21:23.692Z,1014.52
2022-10-17T00:22:23.696Z,1014.49
2022-10-17T00:23:23.645Z,1014.56
2022-10-17T00:24:23.639Z,1014.57
2022-10-17T00:25:23.630Z,1014.56
2022-10-17T00:26:23.627Z,1014.41
2022-10-17T00:27:23.592Z,1014.47
2022-10-17T00:28:23.644Z,1014.46
2022-10-17T00:29:23.556Z,1014.56
2022-10-17T00:30:23.559Z,1014.57
2022-10-17T00:31:23.573Z,1014.54
2022-10-17T00:32:23.531Z,1014.52
2022-10-17T00:33:23.546Z,1014.53
2022-10-17T00:34:23.509Z,1014.55
2022-10-17T00:35:23.478Z,1014.55
2022-10-17T00:36:23.473Z,1014.56
2022-10-17T00:37:23.468Z,1014.59
2022-10-17T00:38:23.450Z,1014.61
2022-10-17T00:39:23.436Z,1014.60
2022-10-17T00:40:23.419Z,1014.51
2022-10-17T00:41:23.420Z,1014.58
2022-10-17T00:42:23.391Z,1014.55
2022-10-17T00:43:23.366Z,1014.53
2022-10-17T00:44:23.377Z,1014.53
2022-10-17T00:45:23.346Z,1014.63
2022-10-17T00:46:23.346Z,1014.60
2022-10-17T00:47:23.335Z,1014.57
2022-10-17T00:48:23.482Z,1014.58
2022-10-17T00:49:23.286Z,1014.62
2022-10-17T00:50:23.288Z,1014.61
2022-10-17T00:51:23.303Z,1014.53
2022-10-17T00:52:23.258Z,1014.52
2022-10-17T00:53:23.262Z,1014.51
2022-10-17T00:54:23.217Z,1014.54
2022-10-17T00:55:23.216Z,1014.52
2022-10-17T00:56:23.222Z,1014.55
2022-10-17T00:57:23.198Z,1014.53
2022-10-17T00:58:23.188Z,1014.61
2022-10-17T00:59:23.157Z,1014.58
2022-10-17T01:00:23.146Z,1014.63
2022-10-17T01:01:23.167Z,1014.60
2022-10-17T01:02:23.128Z,1014.57
2022-10-17T01:03:23.104Z,1014.60
2022-10-17T01:04:23.119Z,1014.60
2022-10-17T01:05:23.097Z,1014.57
2022-10-17T01:06:23.086Z,1014.57
2022-10-17T01:07:23.069Z,1014.57
2022-10-17T01:08:23.045Z,1014.56
2022-10-17T01:09:23.024Z,1014.58
2022-10-17T01:11:23.037Z,1014.61
2022-10-17T01:12:23.008Z,1014.64
2022-10-17T01:13:22.975Z,1014.65
2022-10-17T01:14:22.979Z,1014.61
2022-10-17T01:15:22.956Z,1014.63
2022-10-17T01:16:22.953Z,1014.57
2022-10-17T01:17:22.932Z,1014.64
2022-10-17T01:18:22.928Z,1014.62
2022-10-17T01:19:25.935Z,1014.65
2022-10-17T01:20:22.909Z,1014.62
2022-10-17T01:21:22.896Z,1014.57
2022-10-17T01:22:22.853Z,1014.59
2022-10-17T01:23:22.865Z,1014.60
2022-10-17T01:24:22.831Z,1014.64
2022-10-17T01:25:22.842Z,1014.63
2022-10-17T01:26:22.813Z,1014.63
2022-10-17T01:27:22.795Z,1014.61
2022-10-17T01:28:22.957Z,1014.62
2022-10-17T01:29:22.762Z,1014.65
2022-10-17T01:30:22.743Z,1014.61
2022-10-17T01:31:22.765Z,1014.55
2022-10-17T01:32:22.754Z,1014.57
2022-10-17T01:33:22.721Z,1014.56
2022-10-17T01:34:22.705Z,1014.56
2022-10-17T01:35:22.691Z,1014.55
2022-10-17T01:36:22.688Z,1014.53
2022-10-17T01:37:22.686Z,1014.56
2022-10-17T01:38:22.643Z,1014.50
2022-10-17T01:39:22.640Z,1014.52
2022-10-17T01:40:22.620Z,1014.51
2022-10-17T01:41:22.621Z,1014.46
2022-10-17T01:42:22.615Z,1014.47
2022-10-17T01:43:22.599Z,1014.48
2022-10-17T01:44:22.571Z,1014.51
2022-10-17T01:45:22.575Z,1014.54
2022-10-17T01:46:22.551Z,1014.54
2022-10-17T01:47:22.545Z,1014.58
2022-10-17T01:48:22.521Z,1014.53
2022-10-17T01:49:22.521Z,1014.49
2022-10-17T01:50:22.494Z,1014.52
2022-10-17T01:51:22.488Z,1014.48
2022-10-17T01:52:22.475Z,1014.50
2022-10-17T01:53:22.473Z,1014.46
2022-10-17T01:54:22.455Z,1014.42
2022-10-17T01:55:22.441Z,1014.45
2022-10-17T01:56:22.421Z,1014.38
2022-10-17T01:57:22.400Z,1014.37
2022-10-17T01:58:22.402Z,1014.38
2022-10-17T01:59:22.382Z,1014.32
2022-10-17T02:00:22.374Z,1014.39
2022-10-17T02:01:22.414Z,1014.30
2022-10-17T02:02:22.342Z,1014.29
2022-10-17T02:03:22.321Z,1014.29
2022-10-17T02:04:22.307Z,1014.26
2022-10-17T02:05:22.341Z,1014.21
2022-10-17T02:06:22.299Z,1014.26
2022-10-17T02:07:22.278Z,1014.29
2022-10-17T02:08:22.272Z,1014.23
2022-10-17T02:09:22.261Z,1014.26
2022-10-17T02:10:22.218Z,1014.28
2022-10-17T02:11:22.242Z,1014.28
2022-10-17T02:12:22.210Z,1014.25
2022-10-17T02:13:22.218Z,1014.32
2022-10-17T02:14:22.170Z,1014.32
2022-10-17T02:15:22.161Z,1014.30
2022-10-17T02:16:22.183Z,1014.26
2022-10-17T02:17:22.151Z,1014.29
2022-10-17T02:18:22.132Z,1014.26
2022-10-17T02:19:22.120Z,1014.29
2022-10-17T02:20:22.094Z,1014.31
2022-10-17T02:21:22.111Z,1014.22
2022-10-17T02:22:22.082Z,1014.29
2022-10-17T02:23:22.101Z,1014.31
2022-10-17T02:24:22.058Z,1014.29
2022-10-17T02:25:22.036Z,1014.35
2022-10-17T02:26:22.027Z,1014.26
2022-10-17T02:27:22.021Z,1014.24
2022-10-17T02:28:22.060Z,1014.26
2022-10-17T02:29:21.984Z,1014.28
2022-10-17T02:30:21.969Z,1014.17
2022-10-17T02:31:21.967Z,1014.25
2022-10-17T02:33:21.960Z,1014.17
2022-10-17T02:34:21.930Z,1014.21
2022-10-17T02:35:21.897Z,1014.27
2022-10-17T02:36:21.909Z,1014.26
2022-10-17T02:37:21.892Z,1014.27
2022-10-17T02:38:21.864Z,1014.29
2022-10-17T02:39:21.852Z,1014.28
2022-10-17T02:40:21.835Z,1014.30
2022-10-17T02:41:21.906Z,1014.20
2022-10-17T02:42:21.809Z,1014.27
2022-10-17T02:43:21.803Z,1014.29
2022-10-17T02:44:21.809Z,1014.29
2022-10-17T02:45:21.790Z,1014.34
2022-10-17T02:46:21.785Z,1014.33
2022-10-17T02:47:21.770Z,1014.27
2022-10-17T02:48:21.759Z,1014.29
2022-10-17T02:49:21.723Z,1014.22
2022-10-17T02:50:21.789Z,1014.29
2022-10-17T02:51:21.707Z,1014.23
2022-10-17T02:52:21.697Z,1014.15
2022-10-17T02:53:21.664Z,1014.17
2022-10-17T02:54:21.668Z,1014.22
2022-10-17T02:55:21.648Z,1014.30
2022-10-17T02:56:21.661Z,1014.27
2022-10-17T02:57:21.629Z,1014.24
2022-10-17T02:58:21.619Z,1014.31
2022-10-17T02:59:21.658Z,1014.28
2022-10-17T03:00:21.573Z,1014.23
2022-10-17T03:01:21.642Z,1014.29
2022-10-17T03:02:21.558Z,1014.25
2022-10-17T03:03:21.548Z,1014.25
2022-10-17T03:04:21.542Z,1014.35
2022-10-17T03:05:21.514Z,1014.28
2022-10-17T03:06:21.505Z,1014.34
2022-10-17T03:07:21.498Z,1014.35
2022-10-17T03:08:21.490Z,1014.27
2022-10-17T03:09:21.475Z,1014.30
2022-10-17T03:10:21.447Z,1014.30
2022-10-17T03:11:21.467Z,1014.33
2022-10-17T03:12:21.438Z,1014.26
2022-10-17T03:13:21.436Z,1014.25
2022-10-17T03:14:21.406Z,1014.24
2022-10-17T03:15:21.375Z,1014.39
2022-10-17T03:16:21.383Z,1014.38
2022-10-17T03:17:21.355Z,1014.38
2022-10-17T03:18:21.357Z,1014.25
2022-10-17T03:19:21.346Z,1014.36
2022-10-17T03:20:21.313Z,1014.28
2022-10-17T03:21:21.342Z,1014.33
2022-10-17T03:22:21.306Z,1014.25
2022-10-17T03:23:21.282Z,1014.37
2022-10-17T03:24:21.262Z,1014.29
2022-10-17T03:25:21.260Z,1014.27
2022-10-17T03:26:21.253Z,1014.24
2022-10-17T03:27:21.237Z,1014.28
2022-10-17T03:28:21.255Z,1014.25
2022-10-17T03:29:21.194Z,1014.29
2022-10-17T03:30:21.201Z,1014.28
2022-10-17T03:31:21.193Z,1014.38
2022-10-17T03:32:21.170Z,1014.38
2022-10-17T03:33:21.164Z,1014.38
2022-10-17T03:34:21.133Z,1014.35
2022-10-17T03:35:21.135Z,1014.42
2022-10-17T03:36:21.131Z,1014.41
2022-10-17T03:37:21.091Z,1014.45
2022-10-17T03:38:21.095Z,1014.36
2022-10-17T03:39:21.080Z,1014.47
2022-10-17T03:40:21.051Z,1014.45
2022-10-17T03:41:21.072Z,1014.52
2022-10-17T03:42:21.051Z,1014.47
2022-10-17T03:43:21.034Z,1014.44
2022-10-17T03:44:21.013Z,1014.44
2022-10-17T03:45:20.997Z,1014.45
2022-10-17T03:46:21.010Z,1014.48
2022-10-17T03:47:20.968Z,1014.45
2022-10-17T03:48:20.951Z,1014.51
2022-10-17T03:49:20.953Z,1014.44
2022-10-17T03:50:29.027Z,1014.50
2022-10-17T03:51:20.951Z,1014.50
2022-10-17T03:52:20.895Z,1014.50
2022-10-17T03:53:23.585Z,1014.45
2022-10-17T03:54:20.889Z,1014.50
2022-10-17T03:55:20.865Z,1014.50
2022-10-17T03:56:20.879Z,1014.51
2022-10-17T03:57:20.858Z,1014.49
2022-10-17T03:58:20.838Z,1014.53
2022-10-17T03:59:20.828Z,1014.54
2022-10-17T04:00:20.785Z,1014.53
2022-10-17T04:01:20.838Z,1014.55
2022-10-17T04:02:20.797Z,1014.57
2022-10-17T04:03:20.756Z,1014.60
2022-10-17T04:04:20.757Z,1014.62
2022-10-17T04:05:20.748Z,1014.55
2022-10-17T04:06:20.747Z,1014.54
2022-10-17T04:07:20.772Z,1014.50
2022-10-17T04:08:20.707Z,1014.55
2022-10-17T04:09:20.692Z,1014.58
2022-10-17T04:10:20.687Z,1014.52
2022-10-17T04:11:20.687Z,1014.54
2022-10-17T04:12:20.656Z,1014.56
2022-10-17T04:13:20.654Z,1014.54
2022-10-17T04:14:20.625Z,1014.57
2022-10-17T04:15:20.650Z,1014.62
2022-10-17T04:16:20.607Z,1014.57
2022-10-17T04:17:20.606Z,1014.57
2022-10-17T04:18:20.577Z,1014.59
2022-10-17T04:19:20.576Z,1014.56
2022-10-17T04:20:20.547Z,1014.52
2022-10-17T04:21:20.542Z,1014.54
2022-10-17T04:22:20.505Z,1014.53
2022-10-17T04:23:20.528Z,1014.58
2022-10-17T04:24:20.503Z,1014.51
2022-10-17T04:25:20.487Z,1014.58
2022-10-17T04:26:20.490Z,1014.57
2022-10-17T04:27:20.480Z,1014.61
2022-10-17T04:28:20.464Z,1014.71
2022-10-17T04:29:20.432Z,1014.70
2022-10-17T04:30:20.435Z,1014.71
2022-10-17T04:31:20.431Z,1014.73
2022-10-17T04:32:20.392Z,1014.71
2022-10-17T04:33:20.364Z,1014.74
2022-10-17T04:34:20.354Z,1014.72
2022-10-17T04:35:20.341Z,1014.71
2022-10-17T04:36:20.364Z,1014.69
2022-10-17T04:37:20.313Z,1014.74
2022-10-17T04:38:23.720Z,1014.71
2022-10-17T04:39:21.304Z,1014.72
2022-10-17T04:40:20.314Z,1014.69
2022-10-17T04:41:20.271Z,1014.58
2022-10-17T04:42:20.287Z,1014.67
2022-10-17T04:43:20.242Z,1014.64
2022-10-17T04:44:20.226Z,1014.67
2022-10-17T04:45:20.227Z,1014.65
2022-10-17T04:46:20.229Z,1014.66
2022-10-17T04:47:20.206Z,1014.71
2022-10-17T04:48:20.195Z,1014.72
2022-10-17T04:49:20.203Z,1014.67
2022-10-17T04:50:20.187Z,1014.68
2022-10-17T04:51:23.097Z,1014.72
2022-10-17T04:52:21.182Z,1014.76
2022-10-17T04:53:20.161Z,1014.74
2022-10-17T04:54:20.093Z,1014.69
2022-10-17T04:55:20.093Z,1014.68
2022-10-17T04:56:20.107Z,1014.67
2022-10-17T04:57:20.079Z,1014.64
2022-10-17T04:58:20.054Z,1014.70
2022-10-17T04:59:20.020Z,1014.73
2022-10-17T05:00:20.052Z,1014.70
2022-10-17T05:01:20.108Z,1014.65
2022-10-17T05:02:20.006Z,1014.72
2022-10-17T05:03:20.008Z,1014.71
2022-10-17T05:04:22.453Z,1014.69
2022-10-17T05:05:19.972Z,1014.73
2022-10-17T05:06:19.960Z,1014.68
2022-10-17T05:07:19.926Z,1014.73
2022-10-17T05:08:19.919Z,1014.70
2022-10-17T05:09:19.937Z,1014.69
2022-10-17T05:10:19.901Z,1014.71
2022-10-17T05:11:19.914Z,1014.74
2022-10-17T05:12:19.879Z,1014.69
2022-10-17T05:13:19.848Z,1014.77
2022-10-17T05:14:19.839Z,1014.78
2022-10-17T05:15:19.849Z,1014.76
2022-10-17T05:16:19.827Z,1014.76
2022-10-17T05:17:19.819Z,1014.80
2022-10-17T05:18:19.791Z,1014.81
2022-10-17T05:19:19.783Z,1014.80
2022-10-17T05:20:19.791Z,1014.84
2022-10-17T05:21:19.791Z,1014.77
2022-10-17T05:22:19.757Z,1014.79
2022-10-17T05:23:19.718Z,1014.84
2022-10-17T05:24:19.707Z,1014.83
2022-10-17T05:25:19.677Z,1014.81
2022-10-17T05:26:19.703Z,1014.79
2022-10-17T05:27:19.691Z,1014.83
2022-10-17T05:28:19.662Z,1014.86
2022-10-17T05:29:19.659Z,1014.80
2022-10-17T05:30:19.625Z,1014.81
2022-10-17T05:31:19.651Z,1014.91
2022-10-17T05:32:19.628Z,1014.86
2022-10-17T05:33:19.596Z,1014.92
2022-10-17T05:34:19.589Z,1014.88
2022-10-17T05:35:19.569Z,1014.86
2022-10-17T05:36:19.559Z,1014.85
2022-10-17T05:37:19.564Z,1014.84
2022-10-17T05:38:19.531Z,1014.82
2022-10-17T05:39:19.548Z,1014.82
2022-10-17T05:40:19.499Z,1014.85
2022-10-17T05:41:19.486Z,1014.84
2022-10-17T05:42:19.640Z,1014.83
2022-10-17T05:43:19.474Z,1014.85
2022-10-17T05:44:19.494Z,1014.86
2022-10-17T05:45:19.449Z,1014.84
2022-10-17T05:46:19.417Z,1014.90
2022-10-17T05:47:19.491Z,1014.89
2022-10-17T05:48:19.415Z,1014.92
2022-10-17T05:49:32.581Z,1014.91
2022-10-17T05:50:20.386Z,1014.94
2022-10-17T05:51:19.374Z,1014.93
2022-10-17T05:52:19.389Z,1014.94
2022-10-17T05:53:19.340Z,1014.91
2022-10-17T05:54:19.328Z,1014.91
2022-10-17T05:55:19.319Z,1014.92
2022-10-17T05:56:19.313Z,1014.91
2022-10-17T05:57:19.294Z,1014.88
2022-10-17T05:58:22.062Z,1014.89
2022-10-17T05:59:19.262Z,1014.92
2022-10-17T06:00:19.234Z,1014.87
2022-10-17T06:01:19.238Z,1014.85
2022-10-17T06:02:19.274Z,1014.85
2022-10-17T06:03:19.198Z,1014.89
2022-10-17T06:04:19.184Z,1014.94
2022-10-17T06:05:19.307Z,1014.92
2022-10-17T06:06:19.182Z,1014.91
2022-10-17T06:07:19.173Z,1014.91
2022-10-17T06:08:19.141Z,1014.96
2022-10-17T06:09:19.127Z,1014.97
2022-10-17T06:10:19.120Z,1014.97
2022-10-17T06:11:19.084Z,1014.97
2022-10-17T06:12:19.134Z,1014.99
2022-10-17T06:13:19.089Z,1014.99
2022-10-17T06:14:19.053Z,1015.00
2022-10-17T06:15:19.053Z,1015.01
2022-10-17T06:16:19.039Z,1015.04
2022-10-17T06:17:19.035Z,1015.12
2022-10-17T06:18:19.017Z,1015.09
2022-10-17T06:19:19.016Z,1015.16
2022-10-17T06:20:18.979Z,1015.21
2022-10-17T06:21:18.975Z,1015.22
2022-10-17T06:22:18.987Z,1015.23
2022-10-17T06:23:18.975Z,1015.30
2022-10-17T06:24:18.922Z,1015.30
2022-10-17T06:25:18.901Z,1015.33
2022-10-17T06:26:18.901Z,1015.39
2022-10-17T06:27:18.916Z,1015.31
2022-10-17T06:28:18.903Z,1015.34
2022-10-17T06:29:18.885Z,1015.38
2022-10-17T06:30:18.862Z,1015.41
2022-10-17T06:31:18.839Z,1015.36
2022-10-17T06:32:18.844Z,1015.41
2022-10-17T06:33:18.827Z,1015.41
2022-10-17T06:34:18.810Z,1015.36
2022-10-17T06:35:18.807Z,1015.44
2022-10-17T06:36:18.772Z,1015.44
2022-10-17T06:37:18.804Z,1015.38
2022-10-17T06:38:18.732Z,1015.43
2022-10-17T06:39:18.721Z,1015.38
2022-10-17T06:40:18.714Z,1015.42
2022-10-17T06:41:18.716Z,1015.44
2022-10-17T06:42:18.709Z,1015.51
2022-10-17T06:43:18.695Z,1015.51
2022-10-17T06:44:18.683Z,1015.49
2022-10-17T06:45:18.662Z,1015.52
2022-10-17T06:46:18.666Z,1015.60
2022-10-17T06:47:20.047Z,1015.59
2022-10-17T06:48:18.642Z,1015.64
2022-10-17T06:49:18.611Z,1015.65
2022-10-17T06:50:18.622Z,1015.55
2022-10-17T06:51:18.585Z,1015.57
2022-10-17T06:52:18.599Z,1015.57
2022-10-17T06:53:18.540Z,1015.54
2022-10-17T06:54:18.541Z,1015.64
2022-10-17T06:55:21.962Z,1015.58
2022-10-17T06:56:18.521Z,1015.63
2022-10-17T06:57:18.506Z,1015.60
2022-10-17T06:58:18.512Z,1015.61
2022-10-17T06:59:18.478Z,1015.66
2022-10-17T07:00:18.459Z,1015.76
2022-10-17T07:01:18.462Z,1015.70
2022-10-17T07:02:18.443Z,1015.74
2022-10-17T07:03:18.440Z,1015.78
2022-10-17T07:04:18.410Z,1015.83
2022-10-17T07:05:18.380Z,1015.74
2022-10-17T07:06:18.401Z,1015.78
2022-10-17T07:07:18.360Z,1015.74
2022-10-17T07:08:18.378Z,1015.78
2022-10-17T07:09:18.361Z,1015.86
2022-10-17T07:10:18.329Z,1015.88
2022-10-17T07:11:18.350Z,1015.84
2022-10-17T07:12:18.323Z,1015.91
2022-10-17T07:13:18.309Z,1015.91
2022-10-17T07:14:18.291Z,1015.91
2022-10-17T07:15:18.275Z,1015.89
2022-10-17T07:16:18.270Z,1015.94
2022-10-17T07:17:18.238Z,1015.91
2022-10-17T07:18:18.250Z,1015.97
2022-10-17T07:19:18.214Z,1015.93
2022-10-17T07:20:18.209Z,1015.86
2022-10-17T07:21:18.201Z,1015.90
2022-10-17T07:22:18.213Z,1015.90
2022-10-17T07:23:18.181Z,1015.90
2022-10-17T07:24:18.151Z,1015.94
2022-10-17T07:25:18.145Z,1015.93
2022-10-17T07:26:18.233Z,1015.91
2022-10-17T07:27:18.107Z,1015.98
2022-10-17T07:28:18.141Z,1015.94
2022-10-17T07:29:18.077Z,1015.86
2022-10-17T07:30:18.074Z,1015.88
2022-10-17T07:31:18.073Z,1015.87
2022-10-17T07:32:18.038Z,1015.85
2022-10-17T07:33:18.057Z,1015.90
2022-10-17T07:34:18.008Z,1015.87
2022-10-17T07:35:18.001Z,1015.87
2022-10-17T07:36:17.982Z,1015.93
2022-10-17T07:37:17.970Z,1015.96
2022-10-17T07:38:17.989Z,1016.00
2022-10-17T07:39:17.971Z,1015.96
2022-10-17T07:40:17.963Z,1015.91
2022-10-17T07:41:20.962Z,1015.94
2022-10-17T07:42:17.942Z,1015.91
2022-10-17T07:43:17.897Z,1015.90
2022-10-17T07:44:17.886Z,1015.97
2022-10-17T07:45:17.857Z,1015.94
2022-10-17T07:46:17.854Z,1016.04
2022-10-17T07:47:17.865Z,1015.94
2022-10-17T07:48:17.848Z,1015.96
2022-10-17T07:49:17.822Z,1015.93
2022-10-17T07:50:17.840Z,1015.97
2022-10-17T07:51:17.784Z,1016.00
2022-10-17T07:52:17.807Z,1015.95
2022-10-17T07:53:17.799Z,1015.99
2022-10-17T07:54:17.769Z,1016.01
2022-10-17T07:55:17.756Z,1016.03
2022-10-17T07:56:17.761Z,1016.02
2022-10-17T07:57:17.723Z,1016.03
2022-10-17T07:58:17.717Z,1016.02
2022-10-17T07:59:17.677Z,1015.97
2022-10-17T08:00:17.678Z,1015.95
2022-10-17T08:01:18.519Z,1016.02
2022-10-17T08:02:17.638Z,1015.96
2022-10-17T08:03:17.648Z,1015.96
2022-10-17T08:04:17.627Z,1015.96
2022-10-17T08:05:17.601Z,1015.91
2022-10-17T08:06:17.606Z,1016.03
2022-10-17T08:07:23.049Z,1015.97
2022-10-17T08:08:18.584Z,1016.01
2022-10-17T08:09:17.561Z,1016.02
2022-10-17T08:10:17.536Z,1016.05
2022-10-17T08:11:17.531Z,1016.08
2022-10-17T08:12:17.517Z,1016.10
2022-10-17T08:13:17.518Z,1016.10
2022-10-17T08:14:17.494Z,1016.08
2022-10-17T08:15:17.463Z,1016.03
2022-10-17T08:16:17.465Z,1016.06
2022-10-17T08:17:17.433Z,1016.11
2022-10-17T08:18:17.456Z,1016.06
2022-10-17T08:19:17.426Z,1016.09
2022-10-17T08:20:17.416Z,1016.06
2022-10-17T08:21:17.383Z,1016.09
2022-10-17T08:22:17.384Z,1016.19
2022-10-17T08:23:17.370Z,1016.25
2022-10-17T08:24:17.365Z,1016.20
2022-10-17T08:25:17.331Z,1016.26
2022-10-17T08:26:17.397Z,1016.29
2022-10-17T08:27:17.315Z,1016.30
2022-10-17T08:28:17.334Z,1016.36
2022-10-17T08:29:17.274Z,1016.33
2022-10-17T08:30:17.283Z,1016.32
2022-10-17T08:31:17.251Z,1016.33
2022-10-17T08:32:17.257Z,1016.28
2022-10-17T08:33:17.253Z,1016.29
2022-10-17T08:34:17.234Z,1016.31
2022-10-17T08:35:17.223Z,1016.27
2022-10-17T08:36:17.212Z,1016.22
2022-10-17T08:37:17.173Z,1016.28
2022-10-17T08:38:20.832Z,1016.26
2022-10-17T08:39:17.171Z,1016.30
2022-10-17T08:40:17.140Z,1016.35
2022-10-17T08:41:17.174Z,1016.40
2022-10-17T08:42:17.110Z,1016.42
2022-10-17T08:43:17.110Z,1016.45
2022-10-17T08:44:17.096Z,1016.40
2022-10-17T08:45:17.098Z,1016.43
2022-10-17T08:46:17.074Z,1016.47
2022-10-17T08:47:17.053Z,1016.54
2022-10-17T08:48:17.074Z,1016.53
2022-10-17T08:49:17.010Z,1016.52
2022-10-17T08:50:17.021Z,1016.59
2022-10-17T08:51:16.988Z,1016.63
2022-10-17T08:52:16.980Z,1016.71
2022-10-17T08:53:16.982Z,1016.76
2022-10-17T08:54:16.966Z,1016.75
2022-10-17T08:55:17.024Z,1016.71
2022-10-17T08:56:19.757Z,1016.71
2022-10-17T08:57:17.912Z,1016.74
2022-10-17T08:58:16.901Z,1016.76
2022-10-17T08:59:16.913Z,1016.74
2022-10-17T09:00:16.874Z,1016.81
2022-10-17T09:01:16.869Z,1016.78
2022-10-17T09:02:16.851Z,1016.78
2022-10-17T09:03:16.948Z,1016.83
2022-10-17T09:04:16.821Z,1016.81
2022-10-17T09:05:16.811Z,1016.81
2022-10-17T09:06:16.812Z,1016.75
2022-10-17T09:07:16.790Z,1016.77
2022-10-17T09:08:16.771Z,1016.76
2022-10-17T09:09:16.773Z,1016.76
2022-10-17T09:10:16.738Z,1016.75
2022-10-17T09:11:16.734Z,1016.74
2022-10-17T09:12:16.722Z,1016.79
2022-10-17T09:13:16.732Z,1016.78
2022-10-17T09:14:16.711Z,1016.80
2022-10-17T09:15:16.679Z,1016.86
2022-10-17T09:16:16.693Z,1016.85
2022-10-17T09:17:16.674Z,1016.84
2022-10-17T09:18:18.685Z,1016.78
2022-10-17T09:19:16.644Z,1016.89
2022-10-17T09:20:16.605Z,1016.85
2022-10-17T09:21:16.589Z,1016.86
2022-10-17T09:22:16.586Z,1016.78
2022-10-17T09:23:16.582Z,1016.85
2022-10-17T09:24:16.579Z,1016.90
2022-10-17T09:25:16.550Z,1016.86
2022-10-17T09:26:16.549Z,1016.81
2022-10-17T09:27:16.528Z,1016.89
2022-10-17T09:28:16.522Z,1016.88
2022-10-17T09:29:16.488Z,1016.90
2022-10-17T09:30:21.491Z,1016.85
2022-10-17T09:31:17.476Z,1016.88
2022-10-17T09:32:16.439Z,1016.95
2022-10-17T09:33:28.380Z,1017.00
2022-10-17T09:34:17.432Z,1016.92
2022-10-17T09:35:16.410Z,1016.94
2022-10-17T09:36:16.398Z,1016.94
2022-10-17T09:37:16.376Z,1016.93
2022-10-17T09:38:16.401Z,1016.89
2022-10-17T09:39:16.347Z,1016.98
2022-10-17T09:40:16.347Z,1016.96
2022-10-17T09:41:42.897Z,1017.00
2022-10-17T09:42:17.333Z,1016.97
2022-10-17T09:43:16.338Z,1016.93
2022-10-17T09:44:16.348Z,1016.97
2022-10-17T09:45:16.273Z,1016.95
2022-10-17T09:46:16.266Z,1016.91
2022-10-17T09:47:16.256Z,1016.92
2022-10-17T09:48:16.253Z,1016.94
2022-10-17T09:49:17.267Z,1016.87
2022-10-17T09:50:16.227Z,1016.91
2022-10-17T09:51:25.668Z,1016.90
2022-10-17T09:52:17.176Z,1017.00
2022-10-17T09:53:16.200Z,1016.99
2022-10-17T09:54:16.149Z,1017.10
2022-10-17T09:55:16.138Z,1017.04
2022-10-17T09:56:16.126Z,1016.99
2022-10-17T09:57:16.132Z,1017.10
2022-10-17T09:58:16.117Z,1017.08
2022-10-17T09:59:16.086Z,1017.06
2022-10-17T10:00:16.090Z,1017.06
2022-10-17T10:01:21.005Z,1017.12
2022-10-17T10:02:17.056Z,1017.13
2022-10-17T10:03:16.064Z,1017.16
2022-10-17T10:04:16.017Z,1017.11
2022-10-17T10:05:16.034Z,1017.13
2022-10-17T10:06:16.026Z,1017.14
2022-10-17T10:07:16.003Z,1017.14
2022-10-17T10:08:15.985Z,1017.19
2022-10-17T10:09:16.002Z,1017.16
2022-10-17T10:10:15.936Z,1017.22
2022-10-17T10:11:15.958Z,1017.25
2022-10-17T10:12:15.915Z,1017.23
2022-10-17T10:13:15.984Z,1017.25
2022-10-17T10:14:15.892Z,1017.27
2022-10-17T10:15:15.867Z,1017.32
2022-10-17T10:16:15.856Z,1017.26
2022-10-17T10:17:15.859Z,1017.26
2022-10-17T10:18:15.841Z,1017.30
2022-10-17T10:19:15.846Z,1017.28
2022-10-17T10:20:15.806Z,1017.34
2022-10-17T10:21:15.810Z,1017.34
2022-10-17T10:22:15.804Z,1017.28
2022-10-17T10:23:15.774Z,1017.29
2022-10-17T10:24:15.753Z,1017.30
2022-10-17T10:25:15.785Z,1017.33
2022-10-17T10:26:20.156Z,1017.30
2022-10-17T10:27:16.723Z,1017.26
2022-10-17T10:28:15.714Z,1017.32
2022-10-17T10:29:15.711Z,1017.30
2022-10-17T10:30:15.664Z,1017.37
2022-10-17T10:33:38.313Z,1017.32
2022-10-17T10:34:36.474Z,1017.31
2022-10-17T10:35:35.480Z,1017.35
2022-10-17T10:37:35.437Z,1017.33
2022-10-17T10:38:35.431Z,1017.37
2022-10-17T10:39:35.499Z,1017.36
2022-10-17T10:40:35.429Z,1017.43
2022-10-17T10:41:35.409Z,1017.49
2022-10-17T10:42:35.483Z,1017.51
2022-10-17T10:43:35.390Z,1017.60
2022-10-17T10:44:42.962Z,1017.55
2022-10-17T10:45:47.363Z,1017.52
2022-10-17T10:46:36.322Z,1017.54
2022-10-17T10:47:35.304Z,1017.54
2022-10-17T10:48:35.320Z,1017.53
2022-10-17T10:49:35.282Z,1017.63
2022-10-17T10:50:35.306Z,1017.65
2022-10-17T10:51:35.293Z,1017.71
2022-10-17T10:52:35.262Z,1017.71
2022-10-17T10:53:35.692Z,1017.74
2022-10-17T10:54:35.270Z,1017.70
2022-10-17T10:55:35.211Z,1017.78
2022-10-17T10:56:35.202Z,1017.79
2022-10-17T10:57:35.191Z,1017.75
2022-10-17T10:58:37.739Z,1017.76
2022-10-17T10:59:35.164Z,1017.74
2022-10-17T11:00:35.212Z,1017.76
2022-10-17T11:01:35.122Z,1017.77
2022-10-17T11:02:35.122Z,1017.74
2022-10-17T11:03:35.208Z,1017.80
2022-10-17T11:04:35.081Z,1017.81
2022-10-17T11:05:35.091Z,1017.85
2022-10-17T11:06:35.091Z,1017.81
2022-10-17T11:07:35.064Z,1017.76
2022-10-17T11:08:35.050Z,1017.72
2022-10-17T11:09:35.037Z,1017.75
2022-10-17T11:10:35.011Z,1017.75
2022-10-17T11:11:35.005Z,1017.69
2022-10-17T11:12:35.103Z,1017.60
2022-10-17T11:13:34.987Z,1017.56
2022-10-17T11:14:34.991Z,1017.45
2022-10-17T11:15:34.970Z,1017.40
2022-10-17T11:16:34.941Z,1017.42
2022-10-17T11:17:34.923Z,1017.42
2022-10-17T11:18:35.027Z,1017.37
2022-10-17T11:19:34.889Z,1017.35
2022-10-17T11:20:34.889Z,1017.42
2022-10-17T11:21:34.884Z,1017.49
2022-10-17T11:22:35.261Z,1017.64
2022-10-17T11:23:34.874Z,1017.67
2022-10-17T11:24:34.830Z,1017.72
2022-10-17T11:25:34.819Z,1017.73
2022-10-17T11:26:34.800Z,1017.80
2022-10-17T11:27:34.790Z,1017.83
2022-10-17T11:28:34.818Z,1017.83
2022-10-17T11:29:34.793Z,1017.87
2022-10-17T11:30:34.804Z,1017.91
2022-10-17T11:31:34.730Z,1017.90
2022-10-17T11:32:34.719Z,1017.96
2022-10-17T11:33:34.730Z,1017.92
2022-10-17T11:34:34.696Z,1017.90
2022-10-17T11:35:34.696Z,1017.90
2022-10-17T11:36:34.673Z,1017.88
2022-10-17T11:37:34.658Z,1017.95
2022-10-17T11:38:34.669Z,1017.84
2022-10-17T11:39:34.716Z,1017.93
2022-10-17T11:40:34.622Z,1017.91
2022-10-17T11:41:34.611Z,1017.91
2022-10-17T11:42:34.598Z,1017.89
2022-10-17T11:43:34.598Z,1017.85
2022-10-17T11:44:34.569Z,1017.88
2022-10-17T11:45:34.559Z,1017.90
2022-10-17T11:46:34.548Z,1017.91
2022-10-17T11:47:34.529Z,1017.82
2022-10-17T11:48:34.537Z,1017.78
2022-10-17T11:49:38.258Z,1017.77
2022-10-17T11:53:05.286Z,1017.83
2022-10-17T11:53:35.463Z,1017.90
2022-10-17T11:54:34.440Z,1017.90
2022-10-17T11:55:34.417Z,1017.90
2022-10-17T11:56:36.158Z,1017.92
2022-10-17T11:57:34.401Z,1017.87
2022-10-17T11:58:34.397Z,1017.88
2022-10-17T11:59:34.375Z,1017.93
2022-10-17T12:00:36.794Z,1017.92
2022-10-17T12:01:34.340Z,1017.99
2022-10-17T12:02:34.331Z,1017.96
2022-10-17T12:03:34.335Z,1018.02
2022-10-17T12:04:34.312Z,1018.01
2022-10-17T12:05:34.289Z,1018.01
2022-10-17T12:06:34.292Z,1018.00
2022-10-17T12:07:34.554Z,1018.03
2022-10-17T12:08:34.267Z,1018.00
2022-10-17T12:09:34.252Z,1018.05
2022-10-17T12:10:34.227Z,1018.06
2022-10-17T12:11:34.217Z,1018.08
2022-10-17T12:12:34.207Z,1018.06